createdAt,value
2022-08-29T00:01:13.018Z,16.55
2022-08-29T00:03:40.953Z,20.98
2022-08-29T00:06:09.380Z,22.85
2022-08-29T00:08:36.434Z,19.20
2022-08-29T00:11:03.652Z,23.88
2022-08-29T00:13:30.804Z,17.15
2022-08-29T00:15:57.979Z,21.55
2022-08-29T00:18:24.984Z,20.05
2022-08-29T00:20:52.298Z,22.48
2022-08-29T00:23:19.460Z,21.60
2022-08-29T00:25:46.548Z,23.10
2022-08-29T00:28:13.960Z,19.95
2022-08-29T00:30:41.384Z,20.02
2022-08-29T00:33:08.879Z,19.38
2022-08-29T00:35:38.526Z,16.52
2022-08-29T00:38:09.008Z,14.48
2022-08-29T00:40:41.076Z,19.10
2022-08-29T00:43:09.470Z,16.02
2022-08-29T00:45:42.653Z,28.15
2022-08-29T00:48:15.606Z,15.48
2022-08-29T00:50:48.244Z,19.95
2022-08-29T00:53:18.269Z,17.20
2022-08-29T00:55:50.266Z,20.10
2022-08-29T00:58:47.661Z,17.42
2022-08-29T01:01:15.145Z,15.80
2022-08-29T01:03:43.267Z,17.45
2022-08-29T01:06:13.602Z,15.90
2022-08-29T01:08:40.978Z,14.50
2022-08-29T01:11:27.116Z,22.13
2022-08-29T01:13:55.445Z,16.60
2022-08-29T01:16:24.307Z,17.02
2022-08-29T01:18:55.221Z,20.27
2022-08-29T01:21:38.755Z,18.58
2022-08-29T01:24:42.658Z,17.17
2022-08-29T01:27:12.582Z,16.95
2022-08-29T01:29:40.186Z,12.77
2022-08-29T01:32:07.283Z,16.05
2022-08-29T01:34:34.470Z,16.77
2022-08-29T01:37:04.947Z,16.13
2022-08-29T01:39:36.721Z,15.32
2022-08-29T01:42:20.709Z,21.33
2022-08-29T01:44:53.480Z,13.88
2022-08-29T01:47:26.881Z,15.73
2022-08-29T01:49:54.544Z,16.48
2022-08-29T01:52:22.302Z,21.20
2022-08-29T01:54:49.554Z,18.33
2022-08-29T01:57:17.523Z,14.73
2022-08-29T01:59:45.297Z,17.48
2022-08-29T02:02:17.443Z,21.70
2022-08-29T02:04:47.254Z,18.10
2022-08-29T02:07:17.716Z,17.30
2022-08-29T02:09:46.092Z,20.30
2022-08-29T02:12:14.969Z,21.40
2022-08-29T02:14:42.628Z,19.63
2022-08-29T02:17:10.273Z,23.85
2022-08-29T02:19:38.965Z,19.15
2022-08-29T02:22:07.738Z,19.67
2022-08-29T02:24:34.971Z,20.23
2022-08-29T02:27:02.099Z,13.10
2022-08-29T02:29:37.079Z,18.38
2022-08-29T02:32:08.021Z,17.90
2022-08-29T02:34:36.448Z,16.38
2022-08-29T02:37:04.836Z,17.15
2022-08-29T02:39:33.708Z,20.40
2022-08-29T02:42:01.508Z,24.83
2022-08-29T02:44:28.765Z,21.00
2022-08-29T02:46:56.360Z,15.20
2022-08-29T02:49:23.806Z,20.42
2022-08-29T02:51:50.863Z,21.48
2022-08-29T02:54:18.091Z,12.45
2022-08-29T02:56:45.189Z,20.23
2022-08-29T02:59:12.501Z,17.95
2022-08-29T03:01:39.629Z,20.00
2022-08-29T03:04:07.039Z,23.92
2022-08-29T03:06:34.136Z,27.38
2022-08-29T03:09:01.471Z,17.02
2022-08-29T03:11:29.663Z,19.33
2022-08-29T03:13:57.747Z,19.98
2022-08-29T03:16:26.294Z,20.08
2022-08-29T03:18:54.534Z,19.00
2022-08-29T03:21:24.989Z,23.48
2022-08-29T03:23:53.475Z,17.45
2022-08-29T03:26:20.672Z,26.45
2022-08-29T03:28:48.310Z,21.20
2022-08-29T03:31:16.458Z,20.85
2022-08-29T03:33:43.832Z,23.00
2022-08-29T03:36:14.357Z,17.80
2022-08-29T03:38:46.513Z,20.35
2022-08-29T03:41:24.305Z,23.75
2022-08-29T03:43:51.842Z,21.08
2022-08-29T03:46:19.389Z,24.95
2022-08-29T03:48:46.801Z,21.40
2022-08-29T03:51:14.183Z,25.80
2022-08-29T03:53:41.456Z,17.52
2022-08-29T03:56:10.743Z,23.15
2022-08-29T03:58:51.947Z,21.27
2022-08-29T04:01:28.825Z,25.00
2022-08-29T04:03:57.391Z,22.95
2022-08-29T04:06:28.462Z,22.48
2022-08-29T04:08:56.167Z,23.73
2022-08-29T04:11:25.141Z,25.98
2022-08-29T04:13:53.725Z,24.85
2022-08-29T04:16:30.729Z,22.38
2022-08-29T04:18:59.700Z,19.70
2022-08-29T04:21:27.519Z,19.98
2022-08-29T04:23:54.985Z,22.27
2022-08-29T04:26:38.690Z,23.15
2022-08-29T04:29:08.314Z,29.10
2022-08-29T04:31:36.700Z,25.15
2022-08-29T04:34:06.128Z,30.55
2022-08-29T04:36:38.169Z,17.83
2022-08-29T04:39:06.855Z,20.40
2022-08-29T04:41:34.894Z,22.17
2022-08-29T04:44:02.341Z,25.45
2022-08-29T04:46:30.066Z,20.83
2022-08-29T04:49:01.816Z,21.48
2022-08-29T04:51:32.265Z,21.08
2022-08-29T04:53:59.311Z,22.73
2022-08-29T04:56:26.366Z,17.85
2022-08-29T04:58:53.564Z,19.05
2022-08-29T05:01:23.084Z,13.98
2022-08-29T05:03:54.375Z,20.88
2022-08-29T05:06:23.658Z,26.38
2022-08-29T05:08:59.718Z,19.83
2022-08-29T05:11:30.905Z,22.58
2022-08-29T05:13:59.255Z,21.77
2022-08-29T05:16:27.538Z,26.27
2022-08-29T05:18:55.461Z,23.52
2022-08-29T05:21:27.115Z,24.58
2022-08-29T05:23:56.581Z,22.02
2022-08-29T05:26:25.037Z,19.10
2022-08-29T05:28:52.120Z,24.25
2022-08-29T05:31:20.106Z,25.40
2022-08-29T05:33:47.360Z,25.35
2022-08-29T05:36:14.715Z,20.80
2022-08-29T05:38:41.747Z,21.85
2022-08-29T05:41:09.119Z,18.05
2022-08-29T05:43:36.369Z,18.67
2022-08-29T05:46:06.484Z,22.60
2022-08-29T05:48:35.108Z,23.05
2022-08-29T05:51:02.501Z,21.83
2022-08-29T05:53:29.498Z,21.65
2022-08-29T05:55:56.818Z,19.83
2022-08-29T05:58:23.842Z,26.90
2022-08-29T06:00:50.979Z,22.08
2022-08-29T06:03:18.381Z,19.42
2022-08-29T06:05:51.747Z,26.15
2022-08-29T06:08:20.211Z,23.08
2022-08-29T06:10:47.663Z,24.02
2022-08-29T06:13:15.449Z,19.17
2022-08-29T06:15:45.879Z,25.95
2022-08-29T06:18:13.396Z,19.77
2022-08-29T06:20:40.886Z,17.90
2022-08-29T06:23:08.388Z,20.42
2022-08-29T06:25:39.705Z,16.20
2022-08-29T06:28:07.849Z,19.73
2022-08-29T06:30:35.095Z,17.65
2022-08-29T06:33:02.933Z,17.88
2022-08-29T06:35:30.213Z,15.95
2022-08-29T06:37:57.302Z,21.27
2022-08-29T06:40:24.824Z,15.73
2022-08-29T06:42:51.945Z,17.08
2022-08-29T06:45:18.889Z,12.93
2022-08-29T06:47:47.577Z,10.50
2022-08-29T06:50:16.012Z,18.23
2022-08-29T06:52:43.123Z,15.93
2022-08-29T06:55:14.827Z,18.30
2022-08-29T06:57:45.460Z,16.95
2022-08-29T07:00:21.772Z,14.57
2022-08-29T07:02:53.538Z,12.68
2022-08-29T07:05:23.316Z,13.18
2022-08-29T07:07:51.672Z,12.73
2022-08-29T07:10:22.552Z,13.25
2022-08-29T07:12:51.643Z,11.80
2022-08-29T07:15:20.179Z,13.25
2022-08-29T07:17:47.738Z,13.80
2022-08-29T07:20:15.731Z,12.77
2022-08-29T07:22:43.365Z,13.48
2022-08-29T07:25:10.480Z,13.32
2022-08-29T07:27:37.845Z,14.57
2022-08-29T07:30:06.502Z,14.15
2022-08-29T07:32:33.600Z,16.27
2022-08-29T07:35:00.646Z,14.48
2022-08-29T07:37:27.869Z,11.82
2022-08-29T07:39:55.849Z,15.65
2022-08-29T07:42:23.408Z,11.32
2022-08-29T07:44:50.648Z,11.07
2022-08-29T07:47:17.786Z,8.40
2022-08-29T07:49:44.824Z,11.95
2022-08-29T07:52:12.068Z,10.48
2022-08-29T07:54:39.171Z,15.48
2022-08-29T07:57:06.436Z,12.30
2022-08-29T07:59:33.729Z,9.55
2022-08-29T08:02:00.918Z,13.90
2022-08-29T08:04:28.370Z,13.00
2022-08-29T08:06:55.900Z,18.40
2022-08-29T08:09:22.854Z,12.20
2022-08-29T08:11:50.419Z,12.73
2022-08-29T08:14:17.595Z,14.18
2022-08-29T08:16:44.899Z,11.80
2022-08-29T08:19:14.302Z,10.50
2022-08-29T08:21:49.408Z,17.30
2022-08-29T08:24:19.969Z,13.52
2022-08-29T08:26:51.103Z,11.48
2022-08-29T08:29:18.245Z,13.98
2022-08-29T08:31:49.938Z,10.57
2022-08-29T08:34:19.164Z,11.18
2022-08-29T08:36:46.430Z,13.32
2022-08-29T08:39:14.322Z,12.73
2022-08-29T08:41:51.094Z,12.68
2022-08-29T08:44:24.928Z,10.68
2022-08-29T08:46:58.295Z,8.32
2022-08-29T08:49:31.569Z,10.48
2022-08-29T08:52:08.052Z,13.25
2022-08-29T08:54:44.285Z,11.15
2022-08-29T08:57:13.210Z,12.63
2022-08-29T08:59:57.422Z,12.55
2022-08-29T09:03:13.048Z,11.40
2022-08-29T09:05:55.192Z,10.65
2022-08-29T09:08:45.075Z,12.82
2022-08-29T09:11:33.490Z,13.50
2022-08-29T09:14:14.619Z,19.98
2022-08-29T09:16:47.428Z,10.57
2022-08-29T09:19:17.345Z,9.68
2022-08-29T09:21:55.228Z,14.52
2022-08-29T09:24:36.095Z,11.23
2022-08-29T09:27:03.305Z,13.23
2022-08-29T09:29:30.937Z,12.80
2022-08-29T09:32:11.528Z,10.88
2022-08-29T09:35:04.889Z,16.33
2022-08-29T09:37:33.780Z,11.73
2022-08-29T09:40:01.495Z,14.00
2022-08-29T09:42:36.082Z,10.70
2022-08-29T09:45:19.927Z,12.93
2022-08-29T09:47:50.950Z,6.60
2022-08-29T09:50:25.833Z,9.38
2022-08-29T09:53:01.562Z,7.93
2022-08-29T09:55:35.086Z,7.97
2022-08-29T09:58:04.257Z,9.38
2022-08-29T10:00:38.937Z,8.32
2022-08-29T10:03:10.907Z,8.90
2022-08-29T10:05:44.841Z,10.43
2022-08-29T10:08:42.337Z,7.75
2022-08-29T10:11:25.235Z,8.50
2022-08-29T10:14:21.062Z,9.82
2022-08-29T10:17:21.738Z,15.40
2022-08-29T10:19:50.473Z,8.77
2022-08-29T10:22:40.273Z,9.00
2022-08-29T10:25:36.751Z,8.70
2022-08-29T10:28:10.623Z,5.47
2022-08-29T10:31:19.603Z,7.95
2022-08-29T10:33:55.193Z,4.63
2022-08-29T10:36:40.471Z,5.43
2022-08-29T10:39:22.253Z,8.52
2022-08-29T10:42:04.566Z,5.00
2022-08-29T10:45:03.139Z,3.55
2022-08-29T10:47:47.246Z,4.47
2022-08-29T10:50:43.548Z,4.53
2022-08-29T10:53:27.747Z,4.80
2022-08-29T10:56:06.411Z,4.10
2022-08-29T10:58:43.115Z,8.95
2022-08-29T11:01:16.919Z,5.72
2022-08-29T11:04:22.371Z,4.53
2022-08-29T11:07:18.613Z,6.40
2022-08-29T11:09:49.309Z,5.88
2022-08-29T11:12:46.307Z,6.40
2022-08-29T11:15:31.616Z,7.63
2022-08-29T11:18:06.911Z,7.30
2022-08-29T11:20:42.261Z,5.93
2022-08-29T11:23:13.938Z,4.82
2022-08-29T11:25:42.106Z,7.35
2022-08-29T11:28:33.847Z,5.25
2022-08-29T11:31:17.906Z,6.57
2022-08-29T11:33:47.669Z,5.38
2022-08-29T11:36:34.739Z,6.57
2022-08-29T11:39:13.818Z,4.78
2022-08-29T11:41:48.370Z,8.70
2022-08-29T11:44:26.911Z,6.07
2022-08-29T11:46:56.434Z,6.50
2022-08-29T11:49:26.483Z,5.63
2022-08-29T11:51:56.741Z,7.05
2022-08-29T11:54:25.015Z,8.55
2022-08-29T11:57:01.027Z,9.65
2022-08-29T11:59:49.927Z,7.70
2022-08-29T12:02:31.911Z,6.88
2022-08-29T12:05:02.285Z,6.47
2022-08-29T12:07:38.635Z,7.20
2022-08-29T12:10:12.432Z,6.25
2022-08-29T12:12:46.340Z,6.38
2022-08-29T12:15:49.435Z,11.65
2022-08-29T12:18:19.505Z,7.00
2022-08-29T12:20:49.872Z,5.88
2022-08-29T12:23:35.460Z,7.80
2022-08-29T12:26:52.495Z,5.78
2022-08-29T12:29:27.858Z,6.65
2022-08-29T12:32:31.112Z,4.50
2022-08-29T12:35:23.945Z,7.88
2022-08-29T12:37:57.586Z,7.97
2022-08-29T12:40:43.837Z,7.78
2022-08-29T12:43:31.115Z,8.27
2022-08-29T12:46:03.958Z,9.25
2022-08-29T12:48:57.655Z,6.00
2022-08-29T12:52:01.651Z,8.45
2022-08-29T12:54:36.188Z,8.15
2022-08-29T12:57:07.840Z,7.68
2022-08-29T12:59:35.519Z,6.75
2022-08-29T13:02:02.756Z,7.22
2022-08-29T13:04:33.853Z,9.18
2022-08-29T13:07:04.839Z,7.60
2022-08-29T13:09:33.752Z,5.80
2022-08-29T13:12:36.725Z,7.05
2022-08-29T13:15:24.761Z,6.78
2022-08-29T13:17:51.821Z,9.18
2022-08-29T13:20:41.119Z,7.38
2022-08-29T13:23:23.212Z,3.30
2022-08-29T13:26:10.439Z,4.13
2022-08-29T13:28:48.574Z,5.35
2022-08-29T13:31:15.759Z,5.15
2022-08-29T13:33:45.854Z,5.03
2022-08-29T13:36:28.005Z,3.88
2022-08-29T13:39:26.721Z,3.67
2022-08-29T13:42:02.839Z,8.95
2022-08-29T13:44:37.316Z,8.52
2022-08-29T13:47:19.770Z,4.88
2022-08-29T13:49:48.594Z,3.42
2022-08-29T13:52:16.403Z,3.45
2022-08-29T13:54:43.472Z,6.82
2022-08-29T13:57:17.458Z,4.32
2022-08-29T13:59:44.876Z,3.47
2022-08-29T14:02:15.330Z,4.95
2022-08-29T14:04:44.128Z,3.75
2022-08-29T14:07:18.214Z,3.85
2022-08-29T14:09:46.199Z,6.25
2022-08-29T14:12:14.266Z,5.93
2022-08-29T14:14:42.400Z,4.72
2022-08-29T14:17:10.186Z,6.43
2022-08-29T14:19:41.496Z,7.22
2022-08-29T14:22:10.767Z,7.38
2022-08-29T14:24:37.893Z,3.95
2022-08-29T14:27:05.048Z,5.25
2022-08-29T14:29:34.428Z,7.97
2022-08-29T14:32:02.959Z,6.53
2022-08-29T14:34:32.528Z,6.30
2022-08-29T14:37:01.742Z,4.22
2022-08-29T14:39:29.458Z,5.72
2022-08-29T14:41:56.501Z,4.50
2022-08-29T14:44:23.997Z,4.43
2022-08-29T14:46:52.064Z,5.07
2022-08-29T14:49:19.884Z,4.55
2022-08-29T14:51:47.286Z,4.97
2022-08-29T14:54:18.123Z,5.22
2022-08-29T14:56:49.211Z,4.43
2022-08-29T14:59:19.052Z,6.07
2022-08-29T15:01:51.287Z,4.55
2022-08-29T15:04:35.888Z,12.32
2022-08-29T15:07:10.560Z,6.05
2022-08-29T15:09:39.049Z,3.92
2022-08-29T15:12:06.366Z,2.75
2022-08-29T15:14:34.659Z,4.25
2022-08-29T15:17:03.060Z,6.05
2022-08-29T15:20:31.669Z,6.85
2022-08-29T15:22:17.954Z,4.22
2022-08-29T15:24:45.197Z,3.50
2022-08-29T15:27:12.850Z,8.07
2022-08-29T15:29:43.275Z,5.35
2022-08-29T15:32:12.170Z,9.55
2022-08-29T15:34:40.727Z,5.43
2022-08-29T15:37:09.975Z,7.07
2022-08-29T15:39:37.545Z,4.13
2022-08-29T15:42:08.607Z,10.05
2022-08-29T15:44:35.897Z,5.35
2022-08-29T15:47:03.380Z,10.90
2022-08-29T15:49:30.928Z,7.90
2022-08-29T15:51:58.499Z,7.38
2022-08-29T15:54:26.030Z,6.20
2022-08-29T15:56:53.355Z,8.75
2022-08-29T15:59:35.775Z,5.63
2022-08-29T16:02:10.546Z,6.65
2022-08-29T16:04:39.875Z,7.13
2022-08-29T16:07:06.838Z,5.65
2022-08-29T16:09:33.829Z,7.25
2022-08-29T16:12:00.979Z,9.57
2022-08-29T16:14:57.998Z,10.77
2022-08-29T16:17:15.579Z,7.80
2022-08-29T16:19:42.771Z,7.95
2022-08-29T16:22:10.001Z,9.65
2022-08-29T16:24:37.477Z,8.98
2022-08-29T16:27:05.088Z,8.80
2022-08-29T16:29:32.729Z,7.75
2022-08-29T16:31:59.967Z,7.70
2022-08-29T16:34:27.843Z,9.93
2022-08-29T16:36:59.715Z,9.52
2022-08-29T16:39:27.830Z,11.43
2022-08-29T16:41:54.954Z,9.20
2022-08-29T16:44:22.392Z,9.85
2022-08-29T16:46:49.579Z,9.68
2022-08-29T16:49:16.822Z,9.77
2022-08-29T16:51:44.065Z,8.85
2022-08-29T16:54:12.143Z,6.72
2022-08-29T16:56:39.843Z,10.88
2022-08-29T16:59:07.772Z,9.10
2022-08-29T17:01:48.862Z,10.80
2022-08-29T17:04:22.496Z,9.20
2022-08-29T17:06:50.814Z,10.38
2022-08-29T17:09:20.521Z,10.60
2022-08-29T17:11:48.882Z,12.65
2022-08-29T17:14:17.246Z,9.50
2022-08-29T17:16:46.740Z,9.43
2022-08-29T17:19:15.110Z,9.48
2022-08-29T17:21:43.320Z,12.57
2022-08-29T17:24:11.277Z,10.77
2022-08-29T17:26:43.477Z,11.75
2022-08-29T17:29:14.794Z,8.77
2022-08-29T17:31:42.352Z,10.38
2022-08-29T17:34:09.418Z,17.13
2022-08-29T17:36:39.882Z,10.90
2022-08-29T17:39:07.298Z,9.27
2022-08-29T17:41:35.820Z,10.77
2022-08-29T17:44:06.204Z,10.82
2022-08-29T17:46:33.319Z,12.13
2022-08-29T17:49:04.255Z,12.43
2022-08-29T17:51:35.013Z,10.70
2022-08-29T17:54:04.262Z,8.35
2022-08-29T17:56:47.486Z,14.85
2022-08-29T17:59:16.289Z,12.52
2022-08-29T18:01:44.008Z,12.90
2022-08-29T18:04:11.418Z,13.48
2022-08-29T18:06:39.584Z,17.50
2022-08-29T18:09:07.441Z,10.80
2022-08-29T18:11:38.946Z,11.43
2022-08-29T18:14:06.993Z,11.27
2022-08-29T18:16:34.407Z,15.15
2022-08-29T18:19:01.844Z,10.85
2022-08-29T18:21:30.112Z,12.95
2022-08-29T18:23:57.839Z,17.25
2022-08-29T18:26:26.376Z,12.93
2022-08-29T18:28:54.818Z,13.98
2022-08-29T18:31:22.218Z,12.57
2022-08-29T18:34:04.665Z,13.90
2022-08-29T18:36:34.888Z,13.32
2022-08-29T18:39:04.299Z,15.98
2022-08-29T18:41:31.799Z,11.65
2022-08-29T18:43:59.439Z,13.05
2022-08-29T18:46:27.795Z,10.07
2022-08-29T18:48:55.306Z,10.50
2022-08-29T18:51:22.456Z,12.80
2022-08-29T18:53:49.584Z,11.77
2022-08-29T18:56:16.587Z,11.63
2022-08-29T18:58:46.633Z,12.80
2022-08-29T19:01:27.482Z,10.82
2022-08-29T19:03:58.042Z,11.00
2022-08-29T19:06:26.149Z,14.65
2022-08-29T19:08:54.668Z,11.00
2022-08-29T19:11:21.964Z,12.98
2022-08-29T19:13:52.390Z,10.15
2022-08-29T19:16:21.214Z,12.15
2022-08-29T19:18:48.861Z,14.95
2022-08-29T19:21:16.086Z,12.57
2022-08-29T19:23:46.037Z,12.32
2022-08-29T19:26:19.651Z,10.50
2022-08-29T19:28:47.033Z,15.82
2022-08-29T19:31:17.232Z,13.00
2022-08-29T19:33:45.264Z,10.70
2022-08-29T19:36:12.985Z,12.77
2022-08-29T19:38:44.075Z,12.73
2022-08-29T19:41:12.481Z,10.20
2022-08-29T19:43:41.050Z,11.80
2022-08-29T19:46:11.864Z,9.73
2022-08-29T19:48:43.724Z,10.82
2022-08-29T19:51:13.347Z,10.23
2022-08-29T19:53:41.606Z,9.32
2022-08-29T19:56:09.908Z,12.63
2022-08-29T19:58:37.970Z,10.32
2022-08-29T20:01:08.782Z,12.38
2022-08-29T20:03:40.667Z,10.65
2022-08-29T20:06:09.322Z,12.75
2022-08-29T20:08:38.048Z,11.75
2022-08-29T20:11:06.552Z,21.00
2022-08-29T20:13:35.739Z,10.48
2022-08-29T20:16:12.297Z,12.50
2022-08-29T20:18:44.631Z,10.93
2022-08-29T20:21:15.101Z,11.07
2022-08-29T20:23:49.648Z,11.77
2022-08-29T20:26:20.910Z,10.10
2022-08-29T20:28:49.783Z,9.85
2022-08-29T20:31:17.031Z,12.60
2022-08-29T20:33:45.848Z,13.23
2022-08-29T20:36:33.463Z,12.68
2022-08-29T20:39:06.917Z,10.23
2022-08-29T20:41:34.237Z,10.88
2022-08-29T20:44:07.000Z,9.73
2022-08-29T20:46:39.516Z,10.82
2022-08-29T20:49:12.081Z,10.40
2022-08-29T20:51:39.966Z,12.35
2022-08-29T20:54:07.459Z,14.45
2022-08-29T20:56:34.517Z,11.02
2022-08-29T20:59:01.648Z,11.13
2022-08-29T21:01:28.903Z,11.18
2022-08-29T21:04:14.633Z,9.57
2022-08-29T21:06:49.285Z,11.95
2022-08-29T21:09:16.293Z,10.38
2022-08-29T21:11:43.685Z,8.30
2022-08-29T21:14:10.906Z,9.85
2022-08-29T21:16:37.990Z,10.25
2022-08-29T21:19:09.662Z,10.73
2022-08-29T21:21:38.427Z,9.52
2022-08-29T21:24:06.574Z,12.45
2022-08-29T21:26:34.364Z,9.52
2022-08-29T21:29:01.683Z,14.25
2022-08-29T21:31:28.832Z,9.88
2022-08-29T21:33:55.957Z,12.63
2022-08-29T21:36:26.281Z,10.15
2022-08-29T21:38:56.702Z,10.07
2022-08-29T21:41:24.947Z,9.90
2022-08-29T21:43:52.886Z,10.65
2022-08-29T21:46:23.458Z,11.40
2022-08-29T21:48:56.871Z,11.35
2022-08-29T21:51:25.177Z,10.52
2022-08-29T21:53:55.535Z,12.48
2022-08-29T21:56:25.239Z,13.45
2022-08-29T21:58:54.340Z,12.68
2022-08-29T22:01:26.827Z,17.02
2022-08-29T22:03:55.284Z,15.23
2022-08-29T22:06:22.863Z,15.30
2022-08-29T22:08:55.609Z,16.83
2022-08-29T22:11:37.127Z,16.52
2022-08-29T22:14:10.048Z,17.63
2022-08-29T22:16:40.247Z,16.38
2022-08-29T22:19:13.024Z,16.30
2022-08-29T22:21:45.769Z,16.33
2022-08-29T22:24:14.636Z,18.67
2022-08-29T22:26:42.998Z,16.98
2022-08-29T22:29:11.722Z,14.40
2022-08-29T22:31:42.353Z,18.35
2022-08-29T22:34:12.532Z,15.15
2022-08-29T22:36:39.595Z,19.83
2022-08-29T22:39:07.733Z,16.17
2022-08-29T22:41:35.407Z,18.88
2022-08-29T22:44:42.462Z,15.30
2022-08-29T22:46:52.873Z,13.48
2022-08-29T22:49:19.936Z,15.85
2022-08-29T22:51:48.244Z,17.23
2022-08-29T22:54:33.866Z,17.63
2022-08-29T22:57:05.763Z,16.50
2022-08-29T22:59:33.915Z,15.32
2022-08-29T23:02:02.422Z,17.75
2022-08-29T23:04:29.864Z,14.32
2022-08-29T23:06:57.459Z,15.82
2022-08-29T23:09:24.487Z,13.60
2022-08-29T23:11:51.812Z,13.70
2022-08-29T23:14:20.726Z,14.13
2022-08-29T23:16:49.077Z,13.85
2022-08-29T23:19:16.416Z,16.00
2022-08-29T23:21:43.916Z,12.18
2022-08-29T23:24:11.156Z,9.80
2022-08-29T23:26:38.175Z,13.43
2022-08-29T23:29:06.143Z,9.02
2022-08-29T23:31:33.147Z,8.73
2022-08-29T23:34:00.249Z,8.10
2022-08-29T23:36:27.622Z,9.68
2022-08-29T23:38:54.648Z,7.60
2022-08-29T23:41:23.319Z,8.65
2022-08-29T23:43:50.872Z,9.85
2022-08-29T23:46:19.448Z,8.45
2022-08-29T23:48:46.638Z,8.02
2022-08-29T23:51:14.673Z,6.72
2022-08-29T23:53:43.386Z,11.25
2022-08-29T23:56:13.046Z,8.52
2022-08-29T23:58:40.981Z,5.43
